createdAt,value
2022-08-26T00:02:07.606Z,98229.31
2022-08-26T00:05:14.728Z,98231.34
2022-08-26T00:08:19.752Z,98226.00
2022-08-26T00:11:26.873Z,98227.00
2022-08-26T00:14:31.068Z,98221.50
2022-08-26T00:17:37.055Z,98224.97
2022-08-26T00:20:43.886Z,98213.12
2022-08-26T00:23:47.949Z,98193.25
2022-08-26T00:26:51.840Z,98218.34
2022-08-26T00:29:55.468Z,98219.91
2022-08-26T00:32:59.540Z,98223.56
2022-08-26T00:36:03.796Z,98212.00
2022-08-26T00:39:08.708Z,98207.97
2022-08-26T00:42:13.760Z,98202.63
2022-08-26T00:45:17.507Z,98203.63
2022-08-26T00:48:26.613Z,98207.66
2022-08-26T00:51:37.028Z,98202.78
2022-08-26T00:54:47.410Z,98201.63
2022-08-26T00:57:51.199Z,98209.94
2022-08-26T01:00:55.174Z,98214.53
2022-08-26T01:04:00.026Z,98209.78
2022-08-26T01:07:04.686Z,98212.09
2022-08-26T01:10:11.450Z,98215.09
2022-08-26T01:13:14.725Z,98217.13
2022-08-26T01:16:18.050Z,98216.28
2022-08-26T01:19:30.039Z,98207.03
2022-08-26T01:22:52.366Z,98219.69
2022-08-26T01:29:09.933Z,98207.72
2022-08-26T01:32:17.570Z,98214.34
2022-08-26T01:35:21.888Z,98210.28
2022-08-26T01:38:27.813Z,98207.97
2022-08-26T01:41:35.875Z,98195.41
2022-08-26T01:44:46.056Z,98204.34
2022-08-26T01:47:57.037Z,98204.63
2022-08-26T01:51:01.925Z,98209.66
2022-08-26T01:54:08.371Z,98205.34
2022-08-26T01:57:17.460Z,98200.25
2022-08-26T02:00:23.726Z,98200.38
2022-08-26T02:03:27.961Z,98194.19
2022-08-26T02:06:32.497Z,98205.28
2022-08-26T02:09:41.498Z,98199.03
2022-08-26T02:12:45.171Z,98190.09
2022-08-26T02:15:48.981Z,98192.72
2022-08-26T02:18:54.464Z,98196.94
2022-08-26T02:22:01.745Z,98192.19
2022-08-26T02:25:52.917Z,98197.94
2022-08-26T02:29:04.499Z,98203.66
2022-08-26T02:32:09.451Z,98196.59
2022-08-26T02:35:18.238Z,98198.16
2022-08-26T02:38:24.496Z,98195.69
2022-08-26T02:41:28.900Z,98195.81
2022-08-26T02:44:32.995Z,98158.44
2022-08-26T02:47:37.584Z,98208.50
2022-08-26T02:50:41.455Z,98199.69
2022-08-26T02:53:45.604Z,98194.50
2022-08-26T02:56:51.739Z,98201.13
2022-08-26T02:59:55.354Z,98196.03
2022-08-26T03:02:59.573Z,98152.03
2022-08-26T03:06:04.831Z,98198.94
2022-08-26T03:09:09.116Z,98191.00
2022-08-26T03:12:13.855Z,98195.13
2022-08-26T03:15:21.385Z,98196.84
2022-08-26T03:18:24.846Z,98191.81
2022-08-26T03:21:28.790Z,98189.19
2022-08-26T03:24:32.700Z,98177.50
2022-08-26T03:27:35.857Z,98193.34
2022-08-26T03:30:44.745Z,98181.63
2022-08-26T03:33:49.948Z,98191.41
2022-08-26T03:36:55.129Z,98193.03
2022-08-26T03:40:01.775Z,98179.37
2022-08-26T03:43:06.381Z,98182.09
2022-08-26T03:46:12.696Z,98180.34
2022-08-26T03:49:20.743Z,98181.50
2022-08-26T03:52:24.757Z,98182.34
2022-08-26T03:55:32.542Z,98184.97
2022-08-26T03:58:37.975Z,98181.63
2022-08-26T04:01:41.921Z,98183.62
2022-08-26T04:04:47.040Z,98173.22
2022-08-26T04:07:51.852Z,98180.22
2022-08-26T04:10:55.142Z,98176.62
2022-08-26T04:14:01.224Z,98181.47
2022-08-26T04:17:06.371Z,98167.59
2022-08-26T04:20:19.253Z,98175.53
2022-08-26T04:23:34.602Z,98176.53
2022-08-26T04:26:51.670Z,98175.78
2022-08-26T04:29:55.529Z,98175.53
2022-08-26T04:32:59.421Z,98177.25
2022-08-26T04:36:04.367Z,98165.72
2022-08-26T04:39:09.491Z,98173.88
2022-08-26T04:42:13.883Z,98169.03
2022-08-26T04:45:17.423Z,98176.69
2022-08-26T04:48:20.625Z,98169.25
2022-08-26T04:51:30.312Z,98161.91
2022-08-26T04:54:34.344Z,98161.75
2022-08-26T04:57:37.666Z,98156.00
2022-08-26T05:00:45.141Z,98168.88
2022-08-26T05:03:49.875Z,98168.06
2022-08-26T05:07:02.350Z,98170.25
2022-08-26T05:10:08.681Z,98174.44
2022-08-26T05:13:15.571Z,98171.87
2022-08-26T05:16:20.483Z,98169.63
2022-08-26T05:19:23.841Z,98172.50
2022-08-26T05:22:27.668Z,98167.50
2022-08-26T05:25:42.791Z,98168.09
2022-08-26T05:28:46.782Z,98172.16
2022-08-26T05:31:52.514Z,98160.97
2022-08-26T05:34:58.623Z,98168.03
2022-08-26T05:38:02.476Z,98178.56
2022-08-26T05:41:34.339Z,98175.12
2022-08-26T05:44:53.729Z,98174.09
2022-08-26T05:47:59.981Z,98186.81
2022-08-26T05:51:09.017Z,98187.53
2022-08-26T05:54:14.534Z,98191.19
2022-08-26T05:57:25.838Z,98191.03
2022-08-26T06:00:30.957Z,98198.53
2022-08-26T06:03:36.212Z,98201.19
2022-08-26T06:06:41.728Z,98201.16
2022-08-26T06:09:47.186Z,98210.84
2022-08-26T06:12:50.199Z,98209.09
2022-08-26T06:15:55.393Z,98209.81
2022-08-26T06:18:59.092Z,98208.50
2022-08-26T06:22:23.889Z,98215.84
2022-08-26T06:25:38.453Z,98206.44
2022-08-26T06:28:45.613Z,98210.75
2022-08-26T06:31:49.580Z,98211.41
2022-08-26T06:34:54.919Z,98209.47
2022-08-26T06:37:58.234Z,98210.87
2022-08-26T06:41:01.567Z,98217.91
2022-08-26T06:44:08.030Z,98222.66
2022-08-26T06:47:12.399Z,98214.91
2022-08-26T06:50:15.250Z,98221.03
2022-08-26T06:53:18.314Z,98221.84
2022-08-26T06:56:24.515Z,98213.53
2022-08-26T06:59:29.578Z,98227.00
2022-08-26T07:02:33.007Z,98227.16
2022-08-26T07:05:36.127Z,98223.19
2022-08-26T07:08:39.301Z,98187.03
2022-08-26T07:11:43.342Z,98216.59
2022-08-26T07:14:48.160Z,98218.78
2022-08-26T07:17:51.434Z,98196.78
2022-08-26T07:20:54.610Z,98217.37
2022-08-26T07:24:01.376Z,98217.16
2022-08-26T07:27:08.761Z,98220.47
2022-08-26T07:30:14.711Z,98221.56
2022-08-26T07:33:19.125Z,98216.41
2022-08-26T07:36:25.214Z,98216.47
2022-08-26T07:39:31.661Z,98215.94
2022-08-26T07:42:35.887Z,98211.47
2022-08-26T07:45:40.422Z,98210.56
2022-08-26T07:48:49.727Z,98210.06
2022-08-26T07:51:55.969Z,98208.50
2022-08-26T07:55:04.935Z,98212.94
2022-08-26T07:58:08.145Z,98202.19
2022-08-26T08:01:13.606Z,98214.41
2022-08-26T08:04:26.070Z,98215.50
2022-08-26T08:07:44.276Z,98208.16
2022-08-26T08:10:50.269Z,98208.91
2022-08-26T08:13:56.562Z,98210.00
2022-08-26T08:17:00.958Z,98211.72
2022-08-26T08:20:06.137Z,98220.81
2022-08-26T08:23:10.845Z,98182.50
2022-08-26T08:26:14.469Z,98212.09
2022-08-26T08:29:20.867Z,98216.22
2022-08-26T08:32:24.343Z,98213.84
2022-08-26T08:35:28.497Z,98204.38
2022-08-26T08:38:34.005Z,98194.00
2022-08-26T08:41:50.762Z,98205.34
2022-08-26T08:44:57.996Z,98206.88
2022-08-26T08:48:04.365Z,98202.19
2022-08-26T08:51:16.868Z,98191.78
2022-08-26T08:54:22.065Z,98192.75
2022-08-26T08:57:53.644Z,98186.78
2022-08-26T09:01:04.776Z,98192.72
2022-08-26T09:04:18.095Z,98185.66
2022-08-26T09:07:28.307Z,98187.81
2022-08-26T09:10:45.419Z,98188.00
2022-08-26T09:13:55.439Z,98182.69
2022-08-26T09:17:08.773Z,98185.75
2022-08-26T09:20:31.232Z,98180.13
2022-08-26T09:23:37.007Z,98155.16
2022-08-26T09:26:41.452Z,98153.75
2022-08-26T09:29:45.756Z,98174.84
2022-08-26T09:33:10.850Z,98171.03
2022-08-26T09:36:15.834Z,98182.88
2022-08-26T09:39:38.163Z,98184.41
2022-08-26T09:42:40.977Z,98179.66
2022-08-26T09:45:59.089Z,98173.66
2022-08-26T09:49:29.840Z,98177.97
2022-08-26T09:52:37.000Z,98165.25
2022-08-26T09:55:43.302Z,98173.09
2022-08-26T09:58:47.840Z,98150.31
2022-08-26T10:01:51.506Z,98162.19
2022-08-26T10:04:59.664Z,98166.00
2022-08-26T10:08:39.271Z,98161.06
2022-08-26T10:11:54.594Z,98155.97
2022-08-26T10:15:03.034Z,98160.38
2022-08-26T10:18:16.204Z,98148.91
2022-08-26T10:21:26.149Z,98150.44
2022-08-26T10:24:39.972Z,98154.72
2022-08-26T10:28:02.417Z,98151.34
2022-08-26T10:31:14.764Z,98149.41
2022-08-26T10:34:21.157Z,98144.22
2022-08-26T10:37:33.611Z,98143.63
2022-08-26T10:40:46.404Z,98139.50
2022-08-26T10:43:57.256Z,98147.97
2022-08-26T10:47:10.812Z,98128.78
2022-08-26T10:50:18.953Z,98137.53
2022-08-26T10:53:51.731Z,98136.84
2022-08-26T10:57:02.882Z,98133.53
2022-08-26T11:01:10.590Z,98122.69
2022-08-26T11:04:34.925Z,98122.56
2022-08-26T11:07:47.789Z,98125.69
2022-08-26T11:10:59.405Z,98126.22
2022-08-26T11:14:06.015Z,98113.53
2022-08-26T11:17:11.942Z,98116.91
2022-08-26T11:20:33.427Z,98111.34
2022-08-26T11:23:44.361Z,98112.91
2022-08-26T11:26:55.953Z,98111.31
2022-08-26T11:30:04.535Z,98108.16
2022-08-26T11:33:09.908Z,98107.56
2022-08-26T11:36:38.609Z,98099.97
2022-08-26T11:39:56.962Z,98105.47
2022-08-26T11:43:07.328Z,98087.22
2022-08-26T11:46:12.960Z,98086.31
2022-08-26T11:49:17.953Z,98081.97
2022-08-26T11:52:22.616Z,98079.63
2022-08-26T11:55:26.194Z,98078.72
2022-08-26T11:58:30.295Z,98080.44
2022-08-26T12:01:39.300Z,98080.06
2022-08-26T12:04:46.588Z,98071.41
2022-08-26T12:07:50.978Z,98068.53
2022-08-26T12:11:09.399Z,98071.91
2022-08-26T12:14:21.749Z,98052.88
2022-08-26T12:17:28.340Z,98042.41
2022-08-26T12:20:46.799Z,98060.06
2022-08-26T12:23:54.701Z,98051.34
2022-08-26T12:27:18.411Z,98047.31
2022-08-26T12:30:26.296Z,98044.53
2022-08-26T12:33:31.040Z,98046.19
2022-08-26T12:36:47.305Z,98046.34
2022-08-26T12:39:50.249Z,98041.22
2022-08-26T12:42:53.720Z,98036.94
2022-08-26T12:46:00.005Z,98038.25
2022-08-26T12:49:04.697Z,98032.53
2022-08-26T12:52:30.354Z,98025.25
2022-08-26T12:55:33.692Z,98024.25
2022-08-26T12:58:38.466Z,98022.78
2022-08-26T13:01:44.770Z,98013.47
2022-08-26T13:04:47.860Z,98018.31
2022-08-26T13:08:17.341Z,98010.78
2022-08-26T13:11:25.495Z,98010.34
2022-08-26T13:14:29.065Z,98001.81
2022-08-26T13:17:33.662Z,97995.47
2022-08-26T13:20:44.173Z,97995.47
2022-08-26T13:23:49.072Z,97992.78
2022-08-26T13:26:53.200Z,97984.88
2022-08-26T13:29:57.822Z,97991.22
2022-08-26T13:33:04.008Z,97992.91
2022-08-26T13:36:07.247Z,97992.28
2022-08-26T13:39:12.634Z,97993.41
2022-08-26T13:42:16.278Z,97981.06
2022-08-26T13:45:19.989Z,97976.81
2022-08-26T13:48:25.318Z,97974.13
2022-08-26T13:51:29.682Z,97964.25
2022-08-26T13:54:34.598Z,97971.75
2022-08-26T13:57:38.878Z,97969.41
2022-08-26T14:00:42.396Z,97961.59
2022-08-26T14:03:46.541Z,97961.16
2022-08-26T14:06:49.689Z,97954.25
2022-08-26T14:09:53.472Z,97966.44
2022-08-26T14:12:58.496Z,97958.06
2022-08-26T14:16:03.526Z,97966.81
2022-08-26T14:19:08.743Z,97966.22
2022-08-26T14:22:12.822Z,97978.25
2022-08-26T14:25:17.977Z,97971.88
2022-08-26T14:28:22.082Z,97972.53
2022-08-26T14:31:28.304Z,97973.94
2022-08-26T14:34:32.532Z,97966.47
2022-08-26T14:37:37.465Z,97976.88
2022-08-26T14:40:45.706Z,97980.22
2022-08-26T14:43:58.726Z,97975.09
2022-08-26T14:47:04.655Z,97977.16
2022-08-26T14:50:10.384Z,97981.94
2022-08-26T14:53:35.623Z,97970.44
2022-08-26T14:56:51.911Z,97974.88
2022-08-26T14:59:59.383Z,97961.38
2022-08-26T15:03:06.803Z,97970.31
2022-08-26T15:06:16.949Z,97958.19
2022-08-26T15:09:21.064Z,97956.31
2022-08-26T15:12:25.484Z,97959.53
2022-08-26T15:15:29.847Z,97948.38
2022-08-26T15:18:33.668Z,97949.47
2022-08-26T15:21:40.201Z,97938.81
2022-08-26T15:24:43.927Z,97945.91
2022-08-26T15:27:47.755Z,97942.47
2022-08-26T15:30:51.504Z,97944.66
2022-08-26T15:33:57.347Z,97940.38
2022-08-26T15:37:01.809Z,97943.59
2022-08-26T15:40:05.311Z,97939.50
2022-08-26T15:43:25.763Z,97932.41
2022-08-26T15:46:33.610Z,97942.47
2022-08-26T15:49:36.960Z,97932.81
2022-08-26T15:52:40.782Z,97934.06
2022-08-26T15:55:45.840Z,97936.13
2022-08-26T15:58:49.910Z,97930.16
2022-08-26T16:01:53.229Z,97931.59
2022-08-26T16:04:56.949Z,97920.66
2022-08-26T16:08:03.572Z,97928.75
2022-08-26T16:11:06.855Z,97928.94
2022-08-26T16:14:09.540Z,97928.91
2022-08-26T16:17:12.799Z,97922.88
2022-08-26T16:20:17.672Z,97911.75
2022-08-26T16:23:22.929Z,97907.19
2022-08-26T16:26:29.979Z,97914.47
2022-08-26T16:29:33.092Z,97908.41
2022-08-26T16:32:36.268Z,97914.97
2022-08-26T16:35:40.093Z,97899.72
2022-08-26T16:38:50.321Z,97920.19
2022-08-26T16:41:55.122Z,97914.56
2022-08-26T16:44:59.542Z,97912.16
2022-08-26T16:48:03.985Z,97916.12
2022-08-26T16:51:13.698Z,97896.31
2022-08-26T16:54:17.532Z,97914.88
2022-08-26T16:57:21.203Z,97917.25
2022-08-26T17:00:28.170Z,97919.25
2022-08-26T17:03:30.735Z,97914.63
2022-08-26T17:06:34.346Z,97908.94
2022-08-26T17:09:37.545Z,97913.94
2022-08-26T17:12:45.375Z,97913.94
2022-08-26T17:15:54.157Z,97920.00
2022-08-26T17:19:02.631Z,97919.13
2022-08-26T17:22:05.734Z,97923.34
2022-08-26T17:25:22.457Z,97913.31
2022-08-26T17:28:25.707Z,97920.94
2022-08-26T17:31:28.700Z,97915.47
2022-08-26T17:34:31.364Z,97912.13
2022-08-26T17:37:34.905Z,97916.91
2022-08-26T17:40:43.019Z,97922.25
2022-08-26T17:43:46.530Z,97921.78
2022-08-26T17:46:51.157Z,97916.50
2022-08-26T17:49:55.771Z,97908.28
2022-08-26T17:52:59.784Z,97914.50
2022-08-26T17:56:08.846Z,97913.19
2022-08-26T17:59:12.404Z,97911.97
2022-08-26T18:02:16.156Z,97919.22
2022-08-26T18:05:20.066Z,97919.91
2022-08-26T18:08:24.130Z,97923.66
2022-08-26T18:11:29.977Z,97924.38
2022-08-26T18:14:33.687Z,97921.69
2022-08-26T18:17:39.223Z,97925.12
2022-08-26T18:20:43.719Z,97926.19
2022-08-26T18:23:49.824Z,97921.94
2022-08-26T18:26:52.488Z,97922.47
2022-08-26T18:29:56.999Z,97919.91
2022-08-26T18:33:00.394Z,97920.78
2022-08-26T18:36:05.359Z,97909.44
2022-08-26T18:39:09.069Z,97911.53
2022-08-26T18:42:12.947Z,97909.31
2022-08-26T18:45:16.539Z,97913.97
2022-08-26T18:48:20.881Z,97909.50
2022-08-26T18:51:31.814Z,97914.34
2022-08-26T18:54:36.829Z,97918.50
2022-08-26T18:57:39.724Z,97919.69
2022-08-26T19:00:43.588Z,97917.47
2022-08-26T19:03:46.949Z,97908.34
2022-08-26T19:06:52.130Z,97923.28
2022-08-26T19:09:57.518Z,97924.00
2022-08-26T19:13:02.507Z,97927.25
2022-08-26T19:16:05.789Z,97929.53
2022-08-26T19:19:09.706Z,97928.81
2022-08-26T19:22:14.012Z,97929.50
2022-08-26T19:25:17.489Z,97922.78
2022-08-26T19:28:21.669Z,97926.75
2022-08-26T19:31:25.326Z,97922.28
2022-08-26T19:34:28.726Z,97931.06
2022-08-26T19:37:31.785Z,97927.41
2022-08-26T19:40:35.515Z,97937.25
2022-08-26T19:43:38.730Z,97931.75
2022-08-26T19:46:44.143Z,97936.56
2022-08-26T19:49:47.387Z,97932.59
2022-08-26T19:52:50.358Z,97937.09
2022-08-26T19:55:53.965Z,97931.56
2022-08-26T19:58:57.128Z,97932.75
2022-08-26T20:02:01.102Z,97940.34
2022-08-26T20:05:06.743Z,97947.22
2022-08-26T20:08:09.674Z,97945.19
2022-08-26T20:11:25.238Z,97939.84
2022-08-26T20:14:28.756Z,97947.22
2022-08-26T20:17:32.990Z,97941.19
2022-08-26T20:20:54.941Z,97948.63
2022-08-26T20:24:08.406Z,97955.66
2022-08-26T20:27:11.558Z,97953.06
2022-08-26T20:30:15.115Z,97962.88
2022-08-26T20:33:20.109Z,97957.19
2022-08-26T20:36:26.833Z,97966.13
2022-08-26T20:39:29.868Z,97951.09
2022-08-26T20:42:33.234Z,97967.13
2022-08-26T20:45:36.585Z,97962.28
2022-08-26T20:48:40.666Z,97961.06
2022-08-26T20:51:43.644Z,97955.88
2022-08-26T20:54:47.523Z,97950.37
2022-08-26T20:57:50.203Z,97969.12
2022-08-26T21:00:54.877Z,97977.56
2022-08-26T21:03:58.078Z,97965.28
2022-08-26T21:07:01.926Z,97980.44
2022-08-26T21:10:05.714Z,97972.00
2022-08-26T21:13:09.003Z,97971.78
2022-08-26T21:16:13.256Z,97966.94
2022-08-26T21:19:18.547Z,97967.63
2022-08-26T21:22:21.391Z,97978.44
2022-08-26T21:25:24.807Z,97977.19
2022-08-26T21:28:29.053Z,97978.56
2022-08-26T21:31:33.247Z,97978.53
2022-08-26T21:34:36.133Z,97972.34
2022-08-26T21:37:39.861Z,97978.12
2022-08-26T21:40:44.374Z,97973.09
2022-08-26T21:43:49.602Z,97980.00
2022-08-26T21:46:53.842Z,97982.22
2022-08-26T21:49:56.995Z,97987.34
2022-08-26T21:53:01.500Z,97985.59
2022-08-26T21:56:11.809Z,97986.63
2022-08-26T21:59:18.940Z,97994.03
2022-08-26T22:02:24.185Z,97987.09
2022-08-26T22:05:28.859Z,97976.94
2022-08-26T22:08:32.343Z,97961.91
2022-08-26T22:11:35.553Z,97968.66
2022-08-26T22:14:39.922Z,97977.44
2022-08-26T22:17:44.693Z,97967.78
2022-08-26T22:20:47.540Z,97973.59
2022-08-26T22:23:51.960Z,97968.56
2022-08-26T22:27:00.534Z,97967.31
2022-08-26T22:30:04.832Z,97973.16
2022-08-26T22:33:07.593Z,97964.38
2022-08-26T22:36:19.757Z,97972.94
2022-08-26T22:39:26.892Z,97967.94
2022-08-26T22:42:30.848Z,97965.34
2022-08-26T22:45:33.913Z,97969.72
2022-08-26T22:48:38.314Z,97956.28
2022-08-26T22:51:41.092Z,97959.50
2022-08-26T22:54:45.358Z,97957.97
2022-08-26T22:57:48.445Z,97964.06
2022-08-26T23:00:52.166Z,97965.41
2022-08-26T23:03:59.450Z,97954.38
2022-08-26T23:07:03.431Z,97957.72
2022-08-26T23:10:08.518Z,97959.34
2022-08-26T23:13:12.470Z,97933.63
2022-08-26T23:16:15.508Z,97953.09
2022-08-26T23:19:21.130Z,97948.25
2022-08-26T23:22:24.475Z,97947.84
2022-08-26T23:25:29.634Z,97948.31
2022-08-26T23:28:35.230Z,97952.41
2022-08-26T23:31:40.104Z,97937.56
2022-08-26T23:35:00.505Z,97938.59
2022-08-26T23:38:04.964Z,97936.00
2022-08-26T23:41:08.691Z,97938.59
2022-08-26T23:44:12.765Z,97931.31
2022-08-26T23:47:16.304Z,97917.47
2022-08-26T23:50:21.822Z,97903.19
2022-08-26T23:53:25.255Z,97927.19
2022-08-26T23:56:29.239Z,97918.53
2022-08-26T23:59:32.720Z,97915.72
